Time;durP1;ratioP1;P1;durP2;ratioP2;P2;SDS_P1;SDS_P2;PMS_P1;PMS_P2;Temp;Humidity;BMP_temperature;BMP_pressure;BME280_temperature;BME280_humidity;BME280_pressure;Samples;Min_cycle;Max_cycle;Signal;HPM_P1;HPM_P2
2023/11/07 00:00:59;;;;;;;15.82;6.88;;;13.00;99.90;;;;;;5055140;28;20048;-71
2023/11/07 00:03:25;;;;;;;16.60;6.65;;;13.00;99.90;;;;;;5055377;28;20448;-73
2023/11/07 00:05:54;;;;;;;16.92;6.45;;;12.90;99.90;;;;;;5054896;28;20469;-72
2023/11/07 00:08:19;;;;;;;18.08;6.10;;;12.90;99.90;;;;;;5054809;28;20033;-71
2023/11/07 00:10:45;;;;;;;14.80;6.32;;;12.80;99.90;;;;;;5054987;28;20040;-71
2023/11/07 00:13:13;;;;;;;19.52;6.60;;;12.80;99.90;;;;;;5054803;28;20041;-71
2023/11/07 00:15:42;;;;;;;15.88;6.55;;;12.80;99.90;;;;;;5054784;28;20033;-71
2023/11/07 00:18:08;;;;;;;13.13;5.97;;;12.80;99.90;;;;;;5054722;28;20037;-72
2023/11/07 00:20:34;;;;;;;13.68;5.88;;;12.80;99.90;;;;;;5054852;28;20040;-71
2023/11/07 00:22:59;;;;;;;13.27;6.15;;;12.70;99.90;;;;;;5054433;28;20048;-71
2023/11/07 00:25:25;;;;;;;17.48;5.68;;;12.70;99.90;;;;;;5061591;28;20047;-71
2023/11/07 00:27:53;;;;;;;13.38;5.38;;;12.70;99.90;;;;;;5074432;28;20090;-72
2023/11/07 00:30:19;;;;;;;16.17;4.45;;;12.70;99.90;;;;;;5074326;28;20032;-71
2023/11/07 00:32:47;;;;;;;10.55;4.55;;;12.70;99.90;;;;;;5074736;28;20036;-71
2023/11/07 00:35:16;;;;;;;12.82;4.78;;;12.70;99.90;;;;;;5074364;28;20520;-72
2023/11/07 00:37:42;;;;;;;16.52;4.97;;;12.70;99.90;;;;;;5074505;28;20128;-71
2023/11/07 00:40:09;;;;;;;11.35;4.07;;;12.70;99.90;;;;;;5074404;28;20112;-71
2023/11/07 00:42:35;;;;;;;14.75;4.47;;;12.70;99.90;;;;;;5074361;28;20054;-71
2023/11/07 00:45:02;;;;;;;11.05;4.10;;;12.70;99.90;;;;;;5074104;28;20029;-71
2023/11/07 00:47:28;;;;;;;14.35;4.40;;;12.70;99.90;;;;;;5073992;28;20419;-71
2023/11/07 00:49:54;;;;;;;13.65;4.85;;;12.70;99.90;;;;;;5074202;28;20112;-71
2023/11/07 00:52:21;;;;;;;12.73;3.83;;;12.70;99.90;;;;;;5073686;28;20174;-71
2023/11/07 00:54:47;;;;;;;7.85;3.90;;;12.70;99.90;;;;;;5073864;28;20028;-70
2023/11/07 00:57:13;;;;;;;15.27;4.35;;;12.70;99.90;;;;;;5074098;28;20036;-71
2023/11/07 00:59:39;;;;;;;16.85;4.78;;;12.70;99.90;;;;;;5073866;28;20037;-71
2023/11/07 01:02:06;;;;;;;13.88;4.32;;;12.70;99.90;;;;;;5074020;28;20475;-71
2023/11/07 01:04:32;;;;;;;12.48;4.13;;;12.70;99.90;;;;;;5073992;28;20557;-71
2023/11/07 01:07:00;;;;;;;15.02;4.10;;;12.70;99.90;;;;;;5073878;28;20589;-71
2023/11/07 01:09:26;;;;;;;13.30;3.95;;;12.70;99.90;;;;;;5073733;28;20033;-71
2023/11/07 01:11:54;;;;;;;10.18;4.18;;;12.70;99.90;;;;;;5073938;28;20032;-71
2023/11/07 01:14:19;;;;;;;14.52;4.60;;;12.70;99.90;;;;;;5074061;28;20028;-71
2023/11/07 01:16:45;;;;;;;16.58;4.90;;;12.60;99.90;;;;;;5073437;28;20047;-71
2023/11/07 01:19:11;;;;;;;15.63;4.57;;;12.60;99.90;;;;;;5073710;28;20120;-71
2023/11/07 01:21:37;;;;;;;11.38;3.92;;;12.60;99.90;;;;;;5073778;28;20491;-71
2023/11/07 01:24:03;;;;;;;12.20;4.20;;;12.60;99.90;;;;;;5073471;28;20025;-71
2023/11/07 01:26:29;;;;;;;13.27;4.50;;;12.50;99.90;;;;;;5073488;28;20072;-71
2023/11/07 01:28:57;;;;;;;10.30;4.05;;;12.50;99.90;;;;;;5073347;28;20043;-71
2023/11/07 01:31:23;;;;;;;9.63;4.38;;;12.40;99.90;;;;;;5055547;28;20033;-71
2023/11/07 01:33:54;;;;;;;7.93;3.58;;;12.40;99.90;;;;;;5073103;28;20045;-71
2023/11/07 01:36:20;;;;;;;13.02;4.18;;;12.40;99.90;;;;;;5073187;28;20035;-71
2023/11/07 01:38:46;;;;;;;11.32;4.32;;;12.40;99.90;;;;;;5073413;28;20112;-71
2023/11/07 01:41:12;;;;;;;8.70;3.65;;;12.30;99.90;;;;;;5055157;28;20074;-71
2023/11/07 01:43:39;;;;;;;9.82;3.80;;;12.30;99.90;;;;;;5073343;28;20052;-71
2023/11/07 01:46:07;;;;;;;8.48;4.32;;;12.30;99.90;;;;;;5072993;28;20127;-71
2023/11/07 01:48:34;;;;;;;11.75;4.00;;;12.30;99.90;;;;;;5073208;28;20059;-71
2023/11/07 01:51:01;;;;;;;16.63;4.53;;;12.30;99.90;;;;;;5054944;28;20039;-71
2023/11/07 01:53:33;;;;;;;9.00;4.30;;;12.30;99.90;;;;;;5054615;28;20435;-71
2023/11/07 01:55:59;;;;;;;7.22;3.60;;;12.20;99.90;;;;;;5072964;28;20029;-71
2023/11/07 01:58:27;;;;;;;14.10;4.07;;;12.20;99.90;;;;;;5071565;28;20071;-71
2023/11/07 02:00:55;;;;;;;9.27;3.58;;;12.10;99.90;;;;;;5070107;28;20404;-70
2023/11/07 02:03:22;;;;;;;7.03;3.28;;;12.10;99.90;;;;;;5069702;28;20098;-71
2023/11/07 02:05:47;;;;;;;13.80;4.72;;;12.10;99.90;;;;;;5072333;28;20033;-71
2023/11/07 02:08:13;;;;;;;16.65;3.67;;;12.10;99.90;;;;;;5072550;28;20033;-71
2023/11/07 02:10:40;;;;;;;10.07;3.85;;;12.00;99.90;;;;;;5072929;28;20476;-70
2023/11/07 02:13:06;;;;;;;11.82;4.10;;;12.00;99.90;;;;;;5072254;28;20119;-71
2023/11/07 02:15:35;;;;;;;13.43;4.25;;;12.00;99.90;;;;;;5072907;28;20550;-71
2023/11/07 02:18:01;;;;;;;14.15;4.43;;;11.90;99.90;;;;;;5072797;28;20149;-71
2023/11/07 02:20:30;;;;;;;13.88;3.92;;;11.90;99.90;;;;;;5072582;28;20037;-71
2023/11/07 02:23:04;;;;;;;10.05;3.83;;;11.90;99.90;;;;;;5072540;28;20028;-71
2023/11/07 02:25:30;;;;;;;14.20;4.35;;;11.90;99.90;;;;;;5072533;28;20104;-71
2023/11/07 02:27:55;;;;;;;10.55;3.58;;;11.80;99.90;;;;;;5072196;28;20079;-72
2023/11/07 02:30:22;;;;;;;17.20;3.83;;;11.90;99.90;;;;;;5072743;28;20043;-71
2023/11/07 02:32:47;;;;;;;9.95;3.65;;;11.90;99.90;;;;;;5072681;28;20028;-71
2023/11/07 02:35:14;;;;;;;13.20;4.32;;;11.90;99.90;;;;;;5072120;28;20131;-71
2023/11/07 02:37:40;;;;;;;13.85;3.83;;;11.90;99.90;;;;;;5072607;28;20559;-71
2023/11/07 02:40:10;;;;;;;14.98;3.95;;;11.90;99.90;;;;;;5072650;28;20120;-71
2023/11/07 02:42:35;;;;;;;17.23;4.13;;;11.90;99.90;;;;;;5072182;28;20111;-71
2023/11/07 02:45:09;;;;;;;10.15;4.00;;;11.90;99.90;;;;;;5072791;28;20071;-71
2023/11/07 02:47:36;;;;;;;11.75;3.58;;;11.90;99.90;;;;;;5072335;28;20553;-71
2023/11/07 02:50:02;;;;;;;10.80;3.70;;;11.90;99.90;;;;;;5072447;28;20384;-71
2023/11/07 02:52:31;;;;;;;9.75;3.47;;;11.90;99.90;;;;;;5072381;28;20044;-71
2023/11/07 02:54:56;;;;;;;11.20;3.53;;;11.90;99.90;;;;;;5072644;28;20017;-71
2023/11/07 02:57:22;;;;;;;9.93;3.38;;;11.90;99.90;;;;;;5054640;28;20497;-71
2023/11/07 02:59:48;;;;;;;15.45;3.92;;;11.90;99.90;;;;;;5052392;28;20112;-71
2023/11/07 03:02:17;;;;;;;11.70;3.30;;;11.90;99.90;;;;;;5052360;28;20033;-71
2023/11/07 03:04:43;;;;;;;9.98;3.28;;;11.90;99.90;;;;;;5052481;28;20460;-71
2023/11/07 03:07:09;;;;;;;11.00;3.45;;;11.90;99.90;;;;;;5052055;28;20041;-71
2023/11/07 03:09:35;;;;;;;9.85;3.58;;;11.90;99.90;;;;;;5052124;28;20033;-71
2023/11/07 03:12:04;;;;;;;8.25;3.45;;;11.80;99.90;;;;;;5052253;28;20040;-71
2023/11/07 03:14:30;;;;;;;12.82;3.40;;;11.80;99.90;;;;;;5053235;28;20029;-71
2023/11/07 03:16:55;;;;;;;8.20;3.47;;;11.80;99.90;;;;;;5055840;28;20112;-71
2023/11/07 03:19:21;;;;;;;10.07;2.90;;;11.80;99.90;;;;;;5056054;28;20029;-71
2023/11/07 03:21:47;;;;;;;12.90;4.05;;;11.80;99.90;;;;;;5056009;28;20536;-71
2023/11/07 03:24:15;;;;;;;10.75;2.92;;;11.80;99.90;;;;;;5055655;28;20029;-71
2023/11/07 03:26:40;;;;;;;12.35;3.20;;;11.70;99.90;;;;;;5055474;28;20489;-70
2023/11/07 03:29:06;;;;;;;29.63;19.48;;;11.70;99.90;;;;;;5055463;28;20061;-71
2023/11/07 03:31:32;;;;;;;13.35;5.35;;;11.70;99.90;;;;;;5055852;28;20037;-71
2023/11/07 03:33:58;;;;;;;12.52;4.70;;;11.70;99.90;;;;;;5055465;28;20080;-71
2023/11/07 03:36:24;;;;;;;9.15;3.00;;;11.70;99.90;;;;;;5055422;28;20033;-71
2023/11/07 03:38:55;;;;;;;11.43;2.78;;;11.70;99.90;;;;;;5055495;28;20476;-71
2023/11/07 03:41:24;;;;;;;8.85;2.88;;;11.80;99.90;;;;;;5055412;28;20098;-71
2023/11/07 03:43:55;;;;;;;6.22;3.00;;;11.80;99.90;;;;;;5055610;28;20059;-72
2023/11/07 03:46:21;;;;;;;7.63;2.58;;;11.70;99.90;;;;;;5055089;28;20397;-71
2023/11/07 03:48:47;;;;;;;11.07;2.75;;;11.80;99.90;;;;;;5055398;28;20115;-71
2023/11/07 03:51:13;;;;;;;7.88;2.42;;;11.70;99.90;;;;;;5054872;28;20033;-71
2023/11/07 03:53:41;;;;;;;11.90;2.65;;;11.70;99.90;;;;;;5055330;28;20048;-71
2023/11/07 03:56:09;;;;;;;10.07;2.53;;;11.70;99.90;;;;;;5055283;28;20037;-71
2023/11/07 03:58:35;;;;;;;7.05;2.63;;;11.70;99.90;;;;;;5055150;28;20060;-71
2023/11/07 04:01:02;;;;;;;8.38;2.72;;;11.70;99.90;;;;;;5055367;28;20096;-71
2023/11/07 04:03:28;;;;;;;8.55;2.85;;;11.70;99.90;;;;;;5054902;28;20056;-71
2023/11/07 04:05:57;;;;;;;10.25;2.72;;;11.70;99.90;;;;;;5054954;28;20073;-71
2023/11/07 04:08:24;;;;;;;8.60;2.55;;;11.70;99.90;;;;;;5055059;28;20152;-71
2023/11/07 04:10:50;;;;;;;5.78;2.30;;;11.70;99.90;;;;;;5054459;28;20052;-71
2023/11/07 04:13:15;;;;;;;11.02;2.58;;;11.60;99.90;;;;;;5054840;28;20029;-71
2023/11/07 04:15:42;;;;;;;7.22;2.28;;;11.60;99.90;;;;;;5054781;28;20037;-71
2023/11/07 04:18:10;;;;;;;10.05;2.85;;;11.60;99.90;;;;;;5054608;28;20366;-72
2023/11/07 04:20:37;;;;;;;9.20;2.80;;;11.60;99.90;;;;;;5054538;28;20103;-71
2023/11/07 04:23:04;;;;;;;13.90;2.55;;;11.50;99.90;;;;;;5055067;28;20466;-71
2023/11/07 04:25:31;;;;;;;11.90;2.53;;;11.50;99.90;;;;;;5054420;28;20040;-71
2023/11/07 04:27:57;;;;;;;6.72;2.20;;;11.50;99.90;;;;;;5054006;28;20045;-71
2023/11/07 04:30:23;;;;;;;9.50;2.55;;;11.60;99.90;;;;;;5054161;28;20076;-71
2023/11/07 04:32:48;;;;;;;5.35;2.08;;;11.50;99.90;;;;;;5054414;28;20065;-71
2023/11/07 04:35:15;;;;;;;7.30;2.55;;;11.50;99.90;;;;;;5054677;28;20087;-71
2023/11/07 04:37:46;;;;;;;8.23;2.25;;;11.60;99.90;;;;;;5054338;28;20036;-71
2023/11/07 04:40:12;;;;;;;10.35;2.17;;;11.60;99.90;;;;;;5054683;28;20555;-71
2023/11/07 04:42:38;;;;;;;7.90;2.53;;;11.50;99.90;;;;;;5054524;28;20032;-71
2023/11/07 04:45:11;;;;;;;8.45;2.60;;;11.50;99.90;;;;;;5054604;28;20039;-71
2023/11/07 04:47:39;;;;;;;9.20;2.20;;;11.40;99.90;;;;;;5054256;28;20417;-71
2023/11/07 04:50:06;;;;;;;8.13;1.90;;;11.50;99.90;;;;;;5054073;28;20036;-71
2023/11/07 04:52:35;;;;;;;6.38;2.92;;;11.50;99.90;;;;;;5054115;28;20040;-71
2023/11/07 04:55:01;;;;;;;11.20;2.38;;;11.50;99.90;;;;;;5060646;28;20391;-71
2023/11/07 04:57:27;;;;;;;10.32;2.63;;;11.40;99.90;;;;;;5073943;28;20037;-71
2023/11/07 04:59:55;;;;;;;7.43;2.33;;;11.40;99.90;;;;;;5074048;28;20043;-71
2023/11/07 05:02:21;;;;;;;9.75;2.83;;;11.40;99.90;;;;;;5074067;28;20043;-71
2023/11/07 05:04:47;;;;;;;11.20;2.53;;;11.40;99.90;;;;;;5073780;28;20392;-71
2023/11/07 05:07:13;;;;;;;9.98;2.15;;;11.40;99.90;;;;;;5073897;28;20111;-71
2023/11/07 05:09:44;;;;;;;6.20;2.88;;;11.40;99.90;;;;;;5073629;28;20388;-71
2023/11/07 05:12:13;;;;;;;5.47;2.38;;;11.30;99.90;;;;;;5073747;28;20047;-73
2023/11/07 05:14:39;;;;;;;7.10;2.30;;;11.30;99.90;;;;;;5073522;28;20052;-72
2023/11/07 05:17:05;;;;;;;10.05;2.60;;;11.20;99.90;;;;;;5073698;28;20075;-71
2023/11/07 05:19:31;;;;;;;8.07;2.78;;;11.20;99.90;;;;;;5072137;28;20499;-71
2023/11/07 05:22:00;;;;;;;8.77;2.80;;;11.20;99.90;;;;;;5073633;28;20033;-73
2023/11/07 05:24:25;;;;;;;7.45;2.33;;;11.20;99.90;;;;;;5073597;28;20029;-71
2023/11/07 05:26:51;;;;;;;7.90;2.42;;;11.10;99.90;;;;;;5073213;28;20090;-74
2023/11/07 05:29:18;;;;;;;5.53;2.30;;;11.10;99.90;;;;;;5073537;28;20036;-76
2023/11/07 05:31:43;;;;;;;8.73;2.80;;;11.10;99.90;;;;;;5073687;28;20028;-71
2023/11/07 05:34:09;;;;;;;9.05;2.35;;;11.10;99.90;;;;;;5059404;28;20056;-70
2023/11/07 05:36:38;;;;;;;9.02;2.90;;;11.10;99.90;;;;;;5053255;28;20128;-71
2023/11/07 05:39:09;;;;;;;6.18;2.40;;;11.10;99.90;;;;;;5053226;28;20052;-71
2023/11/07 05:41:35;;;;;;;9.90;2.47;;;11.10;99.90;;;;;;5053121;28;20037;-71
2023/11/07 05:44:01;;;;;;;7.10;2.67;;;11.10;99.90;;;;;;5053548;28;20043;-70
2023/11/07 05:46:27;;;;;;;8.98;2.60;;;11.00;99.90;;;;;;5053371;28;20496;-70
2023/11/07 05:48:53;;;;;;;9.10;3.20;;;11.00;99.90;;;;;;5052969;28;20056;-71
2023/11/07 05:51:19;;;;;;;7.18;2.55;;;11.00;99.90;;;;;;5062491;28;20569;-70
2023/11/07 05:53:45;;;;;;;7.93;2.67;;;11.00;99.90;;;;;;5073011;28;20361;-71
2023/11/07 05:56:12;;;;;;;7.43;2.50;;;11.10;99.90;;;;;;5072770;28;20040;-71
2023/11/07 05:58:38;;;;;;;8.82;2.67;;;11.00;99.90;;;;;;5073122;28;20445;-70
2023/11/07 06:01:07;;;;;;;8.85;2.45;;;11.10;99.90;;;;;;5071899;28;20377;-70
2023/11/07 06:03:40;;;;;;;5.55;2.50;;;11.00;99.90;;;;;;5072800;28;20071;-70
2023/11/07 06:06:07;;;;;;;8.25;2.85;;;11.00;99.90;;;;;;5072318;28;20562;-71
2023/11/07 06:08:33;;;;;;;9.10;3.20;;;11.00;99.90;;;;;;5072962;28;20029;-71
2023/11/07 06:11:02;;;;;;;7.03;2.72;;;11.00;99.90;;;;;;5072801;28;20127;-70
2023/11/07 06:13:28;;;;;;;13.25;2.75;;;11.00;99.90;;;;;;5072510;28;20056;-70
2023/11/07 06:15:56;;;;;;;7.82;2.90;;;11.00;99.90;;;;;;5072128;28;20085;-70
2023/11/07 06:18:22;;;;;;;10.68;3.58;;;10.90;99.90;;;;;;5072459;28;20037;-70
2023/11/07 06:20:51;;;;;;;10.95;3.55;;;10.90;99.90;;;;;;5072703;28;20110;-70
2023/11/07 06:23:19;;;;;;;8.75;3.35;;;10.90;99.90;;;;;;5072673;28;20032;-70
2023/11/07 06:25:51;;;;;;;6.38;3.55;;;10.90;99.90;;;;;;5072504;28;20029;-70
2023/11/07 06:28:17;;;;;;;10.38;4.90;;;11.10;99.90;;;;;;5072432;28;20041;-70
2023/11/07 06:30:44;;;;;;;14.57;4.65;;;11.00;99.90;;;;;;5072221;28;20020;-74
2023/11/07 06:33:09;;;;;;;15.27;6.32;;;11.00;99.90;;;;;;5032547;28;20036;-71
2023/11/07 06:35:35;;;;;;;13.35;5.80;;;11.00;99.90;;;;;;5032911;28;20029;-70
2023/11/07 06:38:03;;;;;;;11.75;6.35;;;11.00;99.90;;;;;;5032597;28;20026;-71
2023/11/07 06:40:29;;;;;;;10.57;4.30;;;11.00;99.90;;;;;;5032601;28;20434;-70
2023/11/07 06:43:03;;;;;;;11.35;3.95;;;11.00;99.90;;;;;;5032434;28;20501;-70
2023/11/07 06:45:30;;;;;;;7.22;3.80;;;11.10;99.90;;;;;;5032405;28;20029;-70
2023/11/07 06:47:56;;;;;;;12.82;3.55;;;11.10;99.90;;;;;;5032401;28;20041;-70
2023/11/07 06:50:22;;;;;;;12.73;5.15;;;11.10;99.90;;;;;;5034968;28;20425;-70
2023/11/07 06:52:51;;;;;;;10.88;3.30;;;11.20;99.90;;;;;;5036478;28;20621;-70
2023/11/07 06:55:26;;;;;;;6.40;2.80;;;11.20;99.90;;;;;;5036583;28;20065;-70
2023/11/07 06:57:52;;;;;;;11.65;3.30;;;11.30;99.90;;;;;;5036362;28;20025;-70
2023/11/07 07:00:21;;;;;;;12.45;4.22;;;11.40;99.90;;;;;;5036028;28;20033;-70
2023/11/07 07:02:50;;;;;;;23.45;4.38;;;11.50;99.90;;;;;;5035871;28;20433;-70
2023/11/07 07:05:18;;;;;;;15.75;3.67;;;11.50;99.90;;;;;;5034925;28;20394;-75
2023/11/07 07:07:43;;;;;;;13.32;3.58;;;11.50;99.90;;;;;;5036224;28;20045;-71
2023/11/07 07:10:10;;;;;;;17.50;4.03;;;11.70;99.90;;;;;;5035831;28;20096;-74
2023/11/07 07:12:38;;;;;;;23.40;4.03;;;11.70;99.90;;;;;;5036801;28;20129;-79
2023/11/07 07:15:07;;;;;;;18.80;3.65;;;11.90;99.90;;;;;;5036538;28;20029;-72
2023/11/07 07:17:35;;;;;;;18.02;3.47;;;12.00;99.90;;;;;;5036075;28;20116;-70
2023/11/07 07:20:11;;;;;;;17.38;3.70;;;12.10;99.90;;;;;;5036291;28;20394;-71
2023/11/07 07:22:46;;;;;;;11.80;3.67;;;12.10;99.90;;;;;;5033869;28;20033;-70
2023/11/07 07:25:15;;;;;;;12.63;3.08;;;12.20;99.90;;;;;;5052645;28;20059;-70
2023/11/07 07:27:45;;;;;;;9.85;3.00;;;12.30;99.90;;;;;;5075158;28;20087;-72
2023/11/07 07:30:20;;;;;;;15.07;3.20;;;12.30;99.90;;;;;;5058054;28;20044;-77
2023/11/07 07:32:50;;;;;;;11.85;2.92;;;12.40;99.90;;;;;;5055047;28;20033;-73
2023/11/07 07:35:29;;;;;;;11.80;3.30;;;12.40;99.90;;;;;;5055089;28;20044;-72
2023/11/07 07:37:56;;;;;;;9.63;2.80;;;12.50;99.90;;;;;;5055520;28;20047;-70
2023/11/07 07:40:25;;;;;;;8.68;2.50;;;12.50;99.90;;;;;;5054868;28;20036;-71
2023/11/07 07:42:58;;;;;;;8.25;2.35;;;12.60;99.90;;;;;;5055020;28;20025;-72
2023/11/07 07:45:24;;;;;;;10.63;2.42;;;12.60;99.90;;;;;;5054847;28;20025;-75
2023/11/07 07:47:50;;;;;;;8.60;1.98;;;12.70;99.90;;;;;;5055020;28;20037;-71
2023/11/07 07:50:18;;;;;;;9.07;2.08;;;12.70;99.90;;;;;;5054790;28;20044;-71
2023/11/07 07:52:44;;;;;;;10.00;2.08;;;12.80;99.90;;;;;;5054977;28;20064;-71
2023/11/07 07:55:13;;;;;;;11.48;2.15;;;12.90;99.90;;;;;;5054964;28;20040;-71
2023/11/07 07:57:39;;;;;;;6.18;2.50;;;12.80;99.90;;;;;;5054812;28;20440;-71
2023/11/07 08:00:11;;;;;;;7.95;1.92;;;12.80;99.90;;;;;;5054817;28;20370;-71
2023/11/07 08:02:39;;;;;;;12.77;3.30;;;12.90;99.90;;;;;;5053581;28;20037;-71
2023/11/07 08:05:06;;;;;;;15.05;4.70;;;12.90;99.90;;;;;;5054452;28;20083;-72
2023/11/07 08:07:36;;;;;;;19.83;5.43;;;13.00;99.90;;;;;;5054319;28;20041;-72
2023/11/07 08:10:18;;;;;;;15.55;5.47;;;13.00;99.90;;;;;;5054814;28;20445;-72
2023/11/07 08:12:49;;;;;;;19.20;5.40;;;13.10;99.90;;;;;;5053172;28;20041;-72
2023/11/07 08:15:16;;;;;;;16.02;5.35;;;13.10;99.90;;;;;;5052717;28;20651;-71
2023/11/07 08:17:50;;;;;;;15.63;4.22;;;13.10;99.90;;;;;;5052882;28;20025;-72
2023/11/07 08:20:19;;;;;;;12.50;3.13;;;13.20;99.90;;;;;;5053087;28;20032;-71
2023/11/07 08:22:48;;;;;;;12.27;3.13;;;13.20;99.90;;;;;;5052161;28;20459;-72
2023/11/07 08:25:18;;;;;;;8.63;2.67;;;13.20;99.90;;;;;;5053478;28;20480;-70
2023/11/07 08:27:45;;;;;;;6.55;2.10;;;13.30;99.90;;;;;;5053981;28;20041;-71
2023/11/07 08:30:14;;;;;;;6.03;1.80;;;13.40;99.90;;;;;;5054254;28;20032;-72
2023/11/07 08:32:47;;;;;;;4.72;1.63;;;13.40;99.90;;;;;;5054227;28;20029;-72
2023/11/07 08:35:20;;;;;;;6.25;1.83;;;13.50;99.90;;;;;;5054188;28;20397;-72
2023/11/07 08:37:49;;;;;;;10.18;2.42;;;13.50;99.90;;;;;;5054204;28;20058;-71
2023/11/07 08:40:17;;;;;;;10.30;2.17;;;13.60;99.90;;;;;;5062748;28;20127;-71
2023/11/07 08:42:50;;;;;;;6.82;2.47;;;13.60;99.90;;;;;;5044859;28;20042;-72
2023/11/07 08:45:21;;;;;;;5.70;1.90;;;13.60;99.90;;;;;;5074093;28;20040;-71
2023/11/07 08:47:50;;;;;;;6.28;2.50;;;13.70;99.90;;;;;;5073887;28;20065;-71
2023/11/07 08:50:20;;;;;;;11.40;2.05;;;13.70;99.90;;;;;;5073539;28;20040;-71
2023/11/07 08:52:55;;;;;;;12.00;2.63;;;13.80;99.90;;;;;;5072987;28;20032;-72
2023/11/07 08:55:25;;;;;;;10.23;1.60;;;13.80;99.90;;;;;;5073671;28;20058;-72
2023/11/07 08:57:51;;;;;;;5.05;1.50;;;13.90;99.90;;;;;;5073299;28;20024;-73
2023/11/07 09:00:26;;;;;;;4.82;1.70;;;14.00;99.90;;;;;;5073504;28;20060;-72
2023/11/07 09:02:53;;;;;;;8.57;1.70;;;14.10;99.90;;;;;;5073877;28;20032;-72
2023/11/07 09:05:20;;;;;;;15.40;2.00;;;14.10;99.90;;;;;;5073860;28;20074;-72
2023/11/07 09:07:47;;;;;;;7.43;1.70;;;14.10;99.90;;;;;;5073579;28;20041;-72
2023/11/07 09:10:13;;;;;;;8.65;2.00;;;14.20;99.90;;;;;;5072805;28;20388;-72
2023/11/07 09:12:42;;;;;;;13.55;2.35;;;14.30;99.90;;;;;;5073269;28;20042;-72
2023/11/07 09:15:12;;;;;;;9.15;2.33;;;14.30;99.90;;;;;;5073673;28;20092;-71
2023/11/07 09:17:42;;;;;;;6.18;1.63;;;14.40;99.90;;;;;;5073515;28;20029;-71
2023/11/07 09:20:13;;;;;;;6.20;2.13;;;14.50;99.90;;;;;;5073596;28;20442;-72
2023/11/07 09:22:41;;;;;;;9.70;1.73;;;14.50;99.90;;;;;;5073593;28;20362;-72
2023/11/07 09:25:11;;;;;;;5.18;1.70;;;14.60;99.90;;;;;;5073217;28;20395;-72
2023/11/07 09:27:40;;;;;;;6.63;1.70;;;14.70;99.90;;;;;;5073206;28;20170;-73
2023/11/07 09:30:10;;;;;;;8.57;1.60;;;14.70;99.90;;;;;;5073470;28;20555;-72
2023/11/07 09:32:37;;;;;;;5.47;1.60;;;14.80;99.90;;;;;;5073414;28;20058;-71
2023/11/07 09:35:09;;;;;;;6.28;1.52;;;14.80;99.90;;;;;;5073089;28;20442;-72
2023/11/07 09:37:44;;;;;;;5.60;1.40;;;14.90;99.90;;;;;;5073188;28;20410;-72
2023/11/07 09:40:23;;;;;;;5.18;1.50;;;15.00;99.90;;;;;;5073239;28;20043;-72
2023/11/07 09:42:52;;;;;;;9.40;1.75;;;15.00;99.90;;;;;;5054815;28;20033;-71
2023/11/07 09:45:19;;;;;;;8.30;1.42;;;15.00;99.90;;;;;;5072675;28;20033;-71
2023/11/07 09:47:56;;;;;;;10.77;1.67;;;15.00;99.90;;;;;;5072442;28;20058;-71
2023/11/07 09:50:23;;;;;;;8.85;1.85;;;15.00;99.90;;;;;;5072096;28;20068;-71
2023/11/07 09:52:50;;;;;;;10.65;2.15;;;15.00;99.90;;;;;;5072241;28;20448;-71
2023/11/07 09:55:16;;;;;;;6.70;1.70;;;15.10;99.90;;;;;;5072696;28;20029;-71
2023/11/07 09:57:52;;;;;;;7.03;2.17;;;15.10;99.90;;;;;;5073107;28;20489;-72
2023/11/07 10:00:21;;;;;;;11.15;1.90;;;15.20;99.90;;;;;;5073254;28;20032;-71
2023/11/07 10:02:49;;;;;;;9.02;1.95;;;15.30;99.90;;;;;;5073122;28;20374;-72
2023/11/07 10:05:15;;;;;;;8.93;2.13;;;15.30;99.90;;;;;;5072584;28;20028;-71
2023/11/07 10:07:41;;;;;;;5.57;1.73;;;15.40;99.90;;;;;;5071233;28;20044;-72
2023/11/07 10:10:10;;;;;;;9.57;1.75;;;15.60;99.90;;;;;;5072068;28;20377;-72
2023/11/07 10:12:39;;;;;;;4.43;1.02;;;15.70;99.90;;;;;;5072046;28;20067;-72
2023/11/07 10:15:24;;;;;;;5.07;1.30;;;15.80;99.90;;;;;;5072676;28;20370;-71
2023/11/07 10:18:04;;;;;;;6.28;1.25;;;15.80;99.90;;;;;;5072491;28;20055;-72
2023/11/07 10:20:32;;;;;;;8.32;1.40;;;15.80;99.90;;;;;;5072964;28;20047;-72
2023/11/07 10:22:59;;;;;;;12.48;1.95;;;15.70;99.90;;;;;;5072745;28;20475;-72
2023/11/07 10:25:29;;;;;;;8.73;1.40;;;15.70;99.90;;;;;;5072149;28;20437;-72
2023/11/07 10:28:00;;;;;;;5.68;1.15;;;15.70;99.90;;;;;;5072759;28;20412;-71
2023/11/07 10:30:46;;;;;;;7.90;1.20;;;15.60;99.90;;;;;;5072870;28;20037;-72
2023/11/07 10:33:29;;;;;;;6.05;1.00;;;15.60;99.90;;;;;;5072379;28;20033;-71
2023/11/07 10:35:58;;;;;;;5.70;1.05;;;15.70;99.90;;;;;;5072678;28;20400;-71
2023/11/07 10:38:25;;;;;;;5.60;1.20;;;15.70;99.90;;;;;;5072690;28;20389;-71
2023/11/07 10:40:53;;;;;;;4.45;0.80;;;15.70;99.90;;;;;;5072657;28;20025;-72
2023/11/07 10:43:41;;;;;;;3.75;0.80;;;15.70;99.90;;;;;;5072657;28;20033;-71
2023/11/07 10:46:11;;;;;;;6.85;1.77;;;15.70;99.90;;;;;;5072879;28;20046;-71
2023/11/07 10:48:39;;;;;;;4.75;0.80;;;15.60;99.90;;;;;;5072623;28;20397;-71
2023/11/07 10:51:08;;;;;;;7.82;0.80;;;15.60;99.90;;;;;;5072678;28;20041;-71
2023/11/07 10:53:34;;;;;;;2.75;0.80;;;15.60;99.90;;;;;;5072224;28;20028;-71
2023/11/07 10:56:05;;;;;;;3.67;0.90;;;15.60;99.90;;;;;;5072416;28;20059;-72
2023/11/07 10:58:31;;;;;;;7.97;1.23;;;15.60;99.90;;;;;;5072539;28;20036;-73
2023/11/07 11:01:11;;;;;;;4.65;0.73;;;15.60;99.90;;;;;;5072456;28;20034;-71
2023/11/07 11:03:40;;;;;;;2.95;0.55;;;15.70;99.90;;;;;;5072274;28;20033;-72
2023/11/07 11:06:07;;;;;;;5.10;1.00;;;15.70;99.90;;;;;;5071944;28;20032;-72
2023/11/07 11:08:34;;;;;;;5.82;0.70;;;15.70;99.90;;;;;;5072364;28;20037;-72
2023/11/07 11:11:03;;;;;;;6.85;1.27;;;15.80;99.90;;;;;;5072479;28;20055;-72
2023/11/07 11:13:34;;;;;;;4.30;1.20;;;15.90;99.90;;;;;;5072462;28;20032;-72
2023/11/07 11:16:00;;;;;;;3.55;0.93;;;16.00;99.90;;;;;;5072461;28;20102;-71
2023/11/07 11:18:31;;;;;;;4.93;0.75;;;16.10;99.90;;;;;;5072238;28;20036;-71
2023/11/07 11:21:12;;;;;;;6.53;0.98;;;16.20;99.90;;;;;;5054457;28;20040;-71
2023/11/07 11:24:07;;;;;;;4.65;0.82;;;16.40;99.90;;;;;;5072316;28;20103;-72
2023/11/07 11:26:47;;;;;;;8.98;1.08;;;16.40;99.90;;;;;;5063053;28;20400;-71
2023/11/07 11:29:26;;;;;;;4.07;0.80;;;16.40;99.90;;;;;;5062087;28;20048;-71
2023/11/07 11:32:15;;;;;;;4.85;0.98;;;16.40;99.90;;;;;;5051482;28;20480;-72
2023/11/07 11:34:43;;;;;;;3.80;1.17;;;16.30;99.90;;;;;;5051696;28;20057;-72
2023/11/07 11:37:11;;;;;;;2.80;0.80;;;16.30;99.90;;;;;;5054269;28;20060;-72
2023/11/07 11:39:43;;;;;;;2.90;0.55;;;16.30;99.90;;;;;;5054183;28;20037;-72
2023/11/07 11:42:11;;;;;;;3.83;0.90;;;16.20;99.90;;;;;;5060643;28;20077;-73
2023/11/07 11:44:40;;;;;;;6.60;1.23;;;16.20;99.90;;;;;;5034436;28;20505;-72
2023/11/07 11:47:09;;;;;;;2.63;0.80;;;16.20;99.90;;;;;;5034077;28;20037;-72
2023/11/07 11:49:36;;;;;;;3.97;1.10;;;16.20;99.90;;;;;;5035031;28;20445;-72
2023/11/07 11:52:07;;;;;;;3.92;0.95;;;16.30;99.90;;;;;;5034828;28;20052;-73
2023/11/07 11:54:34;;;;;;;5.15;1.10;;;16.30;99.90;;;;;;5033486;28;20039;-73
2023/11/07 11:57:00;;;;;;;1.85;0.70;;;16.20;99.90;;;;;;5034662;28;20040;-71
2023/11/07 11:59:56;;;;;;;2.83;1.00;;;16.20;99.90;;;;;;5034884;28;20030;-72
2023/11/07 12:02:40;;;;;;;4.88;0.98;;;16.20;99.90;;;;;;5034555;28;20045;-71
2023/11/07 12:05:12;;;;;;;3.10;1.10;;;16.10;99.90;;;;;;5033647;28;20041;-71
2023/11/07 12:07:39;;;;;;;4.32;1.20;;;16.10;99.90;;;;;;5033523;28;20045;-71
2023/11/07 12:10:08;;;;;;;4.38;0.93;;;16.00;99.90;;;;;;5033650;28;20429;-71
2023/11/07 12:12:36;;;;;;;5.85;1.48;;;16.00;99.90;;;;;;5033696;28;20033;-73
2023/11/07 12:15:03;;;;;;;4.00;0.90;;;16.10;99.90;;;;;;5033720;28;20030;-73
2023/11/07 12:17:48;;;;;;;3.83;1.02;;;16.00;99.90;;;;;;5033294;28;20025;-71
2023/11/07 12:20:16;;;;;;;2.92;0.93;;;16.00;99.90;;;;;;5033969;28;20036;-71
2023/11/07 12:22:46;;;;;;;6.15;0.90;;;16.10;99.90;;;;;;5034302;28;20028;-72
2023/11/07 12:25:17;;;;;;;4.50;1.27;;;16.10;99.90;;;;;;5034510;28;20498;-72
2023/11/07 12:27:57;;;;;;;4.05;1.15;;;16.10;99.90;;;;;;5034465;28;20405;-72
2023/11/07 12:30:23;;;;;;;3.90;0.90;;;16.10;99.90;;;;;;5033461;28;20503;-72
2023/11/07 12:33:04;;;;;;;6.63;1.30;;;16.10;99.90;;;;;;5034308;28;20044;-72
2023/11/07 12:35:33;;;;;;;3.92;0.90;;;16.20;99.90;;;;;;5034139;28;20056;-72
2023/11/07 12:38:13;;;;;;;3.45;0.77;;;16.20;99.90;;;;;;5034252;28;20034;-72
2023/11/07 12:40:39;;;;;;;4.95;1.25;;;16.20;99.90;;;;;;5034150;28;20030;-72
2023/11/07 12:43:09;;;;;;;2.58;0.73;;;16.20;99.90;;;;;;5033905;28;20052;-72
2023/11/07 12:45:37;;;;;;;5.10;0.80;;;16.20;99.90;;;;;;5034177;28;20180;-72
2023/11/07 12:48:05;;;;;;;5.38;0.88;;;16.30;99.90;;;;;;5033000;28;20049;-72
2023/11/07 12:50:35;;;;;;;6.03;0.80;;;16.30;99.90;;;;;;5033933;28;20386;-72